Time;durP1;ratioP1;P1;durP2;ratioP2;P2;SDS_P1;SDS_P2;PMS_P1;PMS_P2;Temp;Humidity;BMP_temperature;BMP_pressure;BME280_temperature;BME280_humidity;BME280_pressure;Samples;Min_cycle;Max_cycle;Signal;HPM_P1;HPM_P2
2022/05/13 00:02:03;;;;;;;21.20;7.83;;;;;;;11.81;63.77;99041.34;2256253;79;20910;-83
2022/05/13 00:05:04;;;;;;;132.70;16.02;;;;;;;11.87;63.91;99041.83;2256241;79;21311;-81
2022/05/13 00:08:04;;;;;;;21.40;9.20;;;;;;;11.91;64.51;99041.00;2256104;79;20950;-82
2022/05/13 00:11:04;;;;;;;19.82;8.98;;;;;;;12.04;63.87;99034.59;2256041;79;20899;-82
2022/05/13 00:14:05;;;;;;;18.70;8.25;;;;;;;12.04;63.67;99024.13;2255944;79;21322;-82
2022/05/13 00:17:06;;;;;;;14.85;7.60;;;;;;;12.05;63.90;99015.41;2255782;79;20876;-82
2022/05/13 00:20:06;;;;;;;14.93;7.83;;;;;;;12.09;63.96;99015.88;2250743;77;21000;-81
2022/05/13 00:23:06;;;;;;;18.60;8.85;;;;;;;12.10;63.87;99012.40;2248684;79;21272;-81
2022/05/13 00:26:06;;;;;;;16.05;7.90;;;;;;;12.08;63.83;99014.56;2248790;79;20904;-81
2022/05/13 00:29:07;;;;;;;16.25;7.70;;;;;;;12.05;63.76;99020.64;2248603;79;20987;-82
2022/05/13 00:32:07;;;;;;;16.27;7.97;;;;;;;12.02;63.58;99018.00;2248700;79;20861;-82
2022/05/13 00:35:08;;;;;;;15.88;8.08;;;;;;;12.02;63.84;99019.73;2248949;79;21014;-81
2022/05/13 00:38:08;;;;;;;17.30;7.67;;;;;;;11.97;63.87;99021.44;2248676;79;20981;-81
2022/05/13 00:41:08;;;;;;;17.07;7.55;;;;;;;11.96;63.89;99024.91;2248819;79;20962;-81
2022/05/13 00:44:09;;;;;;;12.82;7.08;;;;;;;11.92;64.10;99017.47;2248919;79;20896;-82
2022/05/13 00:47:11;;;;;;;13.53;6.87;;;;;;;11.85;64.17;99017.41;2248416;78;20971;-81
2022/05/13 00:50:10;;;;;;;10.60;6.53;;;;;;;11.82;64.35;99010.41;2248741;79;20947;-81
2022/05/13 00:53:11;;;;;;;13.85;6.85;;;;;;;11.82;64.42;99006.48;2248857;79;20872;-83
2022/05/13 00:56:11;;;;;;;13.85;6.55;;;;;;;11.79;64.58;99006.45;2248948;79;20931;-82
2022/05/13 00:59:11;;;;;;;11.28;6.62;;;;;;;11.74;64.73;99006.80;2248648;79;20959;-81
2022/05/13 01:02:11;;;;;;;9.38;6.17;;;;;;;11.73;64.88;99007.23;2248707;79;21264;-82
2022/05/13 01:05:12;;;;;;;21.05;6.62;;;;;;;11.73;64.99;99014.20;2248700;79;20900;-83
2022/05/13 01:08:12;;;;;;;20.60;7.30;;;;;;;11.72;65.24;99007.22;2248071;79;20924;-81
2022/05/13 01:11:13;;;;;;;9.18;5.58;;;;;;;11.69;65.33;99007.19;2248910;79;20916;-83
2022/05/13 01:14:13;;;;;;;12.90;6.28;;;;;;;11.72;65.55;99005.91;2248518;79;21323;-82
2022/05/13 01:20:32;;;;;;;12.03;6.33;;;;;;;11.79;65.44;99011.68;2258850;78;20959;-83
2022/05/13 01:23:33;;;;;;;10.65;6.10;;;;;;;11.79;65.47;99014.30;2263184;79;20899;-83
2022/05/13 01:26:35;;;;;;;17.77;5.90;;;;;;;11.81;65.51;99008.65;2262766;79;20888;-84
2022/05/13 01:29:33;;;;;;;10.45;5.80;;;;;;;11.82;65.61;99005.17;2262719;79;20938;-83
2022/05/13 01:32:34;;;;;;;14.55;6.33;;;;;;;11.84;65.65;99008.67;2262693;79;21271;-83
2022/05/13 01:35:34;;;;;;;12.33;5.92;;;;;;;11.86;65.70;99008.69;2262783;79;20919;-83
2022/05/13 01:38:35;;;;;;;9.90;5.65;;;;;;;11.85;65.86;99003.89;2262703;79;20911;-83
2022/05/13 01:41:35;;;;;;;12.23;6.33;;;;;;;11.89;65.70;99009.59;2262700;79;21322;-83
2022/05/13 01:44:36;;;;;;;13.93;6.00;;;;;;;11.94;65.66;98997.44;2262616;79;20939;-83
2022/05/13 01:47:36;;;;;;;12.70;5.80;;;;;;;11.97;65.81;98998.77;2262661;79;20915;-82
2022/05/13 01:50:36;;;;;;;9.85;6.10;;;;;;;11.99;66.00;99003.59;2262568;79;20896;-83
2022/05/13 01:53:37;;;;;;;14.43;6.05;;;;;;;11.98;66.05;98995.72;2262315;79;20943;-83
2022/05/13 01:56:37;;;;;;;9.08;5.50;;;;;;;11.94;66.01;98990.90;2262799;79;20959;-83
2022/05/13 01:59:38;;;;;;;16.00;6.25;;;;;;;11.94;66.15;98990.90;2262386;79;20959;-83
2022/05/13 02:05:57;;;;;;;14.38;5.90;;;;;;;11.91;66.23;98989.56;2262369;78;20988;-82
2022/05/13 02:08:57;;;;;;;12.82;6.40;;;;;;;11.91;66.26;98993.92;2262966;79;20951;-82
2022/05/13 02:11:58;;;;;;;7.60;5.60;;;;;;;11.89;66.23;98994.33;2262720;79;20895;-82
2022/05/13 02:14:58;;;;;;;10.40;5.87;;;;;;;11.87;66.36;98994.32;2262581;79;20876;-82
2022/05/13 02:17:58;;;;;;;9.50;5.15;;;;;;;11.83;66.51;98978.59;2262792;79;20906;-81
2022/05/13 02:20:59;;;;;;;17.10;6.65;;;;;;;11.79;66.58;98988.14;2251201;77;20974;-84
2022/05/13 02:23:59;;;;;;;10.28;6.10;;;;;;;11.80;66.74;98984.66;2248934;79;20907;-83
2022/05/13 02:27:00;;;;;;;8.48;5.65;;;;;;;11.79;66.70;98992.94;2249116;79;20896;-84
2022/05/13 02:30:00;;;;;;;15.28;5.87;;;;;;;11.76;66.88;98985.47;2248693;79;20931;-83
2022/05/13 02:33:00;;;;;;;12.95;5.90;;;;;;;11.74;66.98;98989.38;2249211;79;20887;-83
2022/05/13 02:36:01;;;;;;;9.53;5.83;;;;;;;11.71;67.08;98988.47;2249027;79;21264;-83
2022/05/13 02:39:01;;;;;;;10.75;5.65;;;;;;;11.67;67.26;98989.30;2248949;79;20923;-82
2022/05/13 02:42:02;;;;;;;10.15;6.22;;;;;;;11.64;67.41;98990.15;2248879;79;20904;-82
2022/05/13 02:45:02;;;;;;;10.65;5.83;;;;;;;11.60;67.51;98980.95;2248603;79;21296;-81
2022/05/13 02:48:02;;;;;;;30.85;7.40;;;;;;;11.58;67.79;98983.98;2248978;79;20911;-79
2022/05/13 02:51:03;;;;;;;15.15;6.08;;;;;;;11.53;67.83;98980.45;2248719;79;20948;-80
2022/05/13 02:54:04;;;;;;;9.73;5.87;;;;;;;11.46;67.85;98984.30;2248535;79;21340;-83
2022/05/13 02:57:04;;;;;;;23.65;6.33;;;;;;;11.46;67.98;98977.77;2248728;79;20891;-82
2022/05/13 03:00:04;;;;;;;14.15;6.05;;;;;;;11.43;68.14;98982.97;2248192;78;20975;-83
2022/05/13 03:03:05;;;;;;;65.17;10.80;;;;;;;11.43;68.15;98979.48;2248734;79;21178;-81
2022/05/13 03:06:05;;;;;;;33.00;6.97;;;;;;;11.40;68.38;98980.32;2248561;79;21337;-81
2022/05/13 03:09:05;;;;;;;28.92;7.10;;;;;;;11.40;68.53;98972.91;2249489;79;20955;-81
2022/05/13 03:12:06;;;;;;;11.28;5.10;;;;;;;11.42;68.64;98977.29;2249482;79;20903;-81
2022/05/13 03:15:06;;;;;;;12.50;5.67;;;;;;;11.43;68.62;98980.35;2248439;79;21342;-81
2022/05/13 03:18:06;;;;;;;9.75;5.70;;;;;;;11.42;68.63;98979.91;2248956;79;20991;-83
2022/05/13 03:21:07;;;;;;;43.50;7.37;;;;;;;11.45;68.66;98978.63;2248406;78;20959;-80
2022/05/13 03:24:08;;;;;;;9.70;5.08;;;;;;;11.45;68.73;98974.71;2248677;79;20975;-83
2022/05/13 03:27:08;;;;;;;20.12;6.65;;;;;;;11.46;68.69;98978.20;2249016;79;21003;-82
2022/05/13 03:30:08;;;;;;;7.67;5.00;;;;;;;11.48;68.71;98985.20;2248632;79;21331;-83
2022/05/13 03:33:09;;;;;;;303.20;20.95;;;;;;;11.44;68.63;98978.19;2248866;79;20951;-83
2022/05/13 03:36:14;;;;;;;11.68;5.75;;;;;;;11.45;68.91;98982.55;2248536;79;20919;-82
2022/05/13 03:39:12;;;;;;;14.65;6.40;;;;;;;11.49;68.93;98983.03;2247693;79;20962;-82
2022/05/13 03:42:13;;;;;;;12.15;5.65;;;;;;;11.60;69.00;98986.19;2247479;79;20967;-82
2022/05/13 03:45:13;;;;;;;184.15;14.43;;;;;;;11.69;69.20;98988.45;2248328;79;20916;-83
2022/05/13 03:48:13;;;;;;;11.43;5.33;;;;;;;11.78;69.18;98991.19;2247151;79;21374;-81
2022/05/13 03:51:15;;;;;;;22.65;7.15;;;;;;;11.87;69.07;98981.24;2246375;79;21050;-81
2022/05/13 03:54:15;;;;;;;10.65;5.17;;;;;;;12.00;69.13;98983.10;2247267;79;21014;-83
2022/05/13 03:57:16;;;;;;;207.62;15.48;;;;;;;12.11;69.00;98976.64;2247268;79;20963;-78
2022/05/13 04:00:16;;;;;;;59.50;8.98;;;;;;;12.20;68.96;98981.98;2246651;79;21046;-81
2022/05/13 04:03:16;;;;;;;8.50;5.05;;;;;;;12.29;68.91;98986.41;2247731;79;20888;-82
2022/05/13 04:09:36;;;;;;;17.32;6.15;;;;;;;12.48;68.77;98985.66;2247517;78;20975;-82
2022/05/13 04:16:07;;;;;;;22.45;4.95;;;;;;;12.61;68.66;98986.18;2245562;78;21323;-84
2022/05/13 04:19:07;;;;;;;12.80;5.30;;;;;;;12.71;68.94;98980.13;2245847;78;20990;-82
2022/05/13 04:22:07;;;;;;;15.53;5.60;;;;;;;12.86;69.09;98978.45;2252608;79;21037;-80
2022/05/13 04:25:08;;;;;;;16.32;5.75;;;;;;;13.02;68.90;98980.30;2252584;79;20915;-82
2022/05/13 04:28:08;;;;;;;20.27;5.00;;;;;;;13.15;68.45;98980.80;2253877;79;20942;-81
2022/05/13 04:31:09;;;;;;;12.23;5.22;;;;;;;13.33;68.14;98980.02;2253088;79;20919;-82
2022/05/13 04:34:12;;;;;;;60.58;8.48;;;;;;;13.50;67.78;98978.75;2253244;79;21009;-82
2022/05/13 04:37:12;;;;;;;21.77;6.92;;;;;;;13.74;67.41;98976.60;2253597;79;20934;-82
2022/05/13 04:40:12;;;;;;;11.73;5.35;;;;;;;14.01;67.14;98980.16;2253848;79;20970;-81
2022/05/13 04:43:13;;;;;;;10.45;5.20;;;;;;;14.22;66.56;98982.34;2253350;79;21412;-81
2022/05/13 04:46:13;;;;;;;6.75;4.83;;;;;;;14.38;66.36;98974.88;2253895;79;20942;-80
2022/05/13 04:49:14;;;;;;;8.75;5.55;;;;;;;14.56;65.72;98980.13;2254430;79;20914;-83
2022/05/13 04:52:14;;;;;;;12.10;6.67;;;;;;;14.71;65.36;98974.41;2253683;79;20994;-82
2022/05/13 04:55:14;;;;;;;21.48;6.20;;;;;;;14.88;64.98;98968.25;2253697;78;21010;-82
2022/05/13 04:58:15;;;;;;;11.68;6.20;;;;;;;15.05;64.05;98969.50;2252344;77;21226;-81
2022/05/13 05:01:15;;;;;;;20.85;5.95;;;;;;;15.31;63.15;98974.64;2284340;78;21057;-81
2022/05/13 05:04:16;;;;;;;13.75;6.55;;;;;;;15.64;62.20;98972.33;2286866;78;21443;-81
2022/05/13 05:07:16;;;;;;;18.50;6.30;;;;;;;16.03;60.63;98976.42;2286619;77;20981;-82
2022/05/13 05:10:20;;;;;;;189.22;17.75;;;;;;;16.48;59.58;98973.86;2287175;77;21040;-81
2022/05/13 05:13:17;;;;;;;20.10;6.83;;;;;;;16.85;58.48;98977.01;2287603;77;21294;-81
2022/05/13 05:16:19;;;;;;;29.40;6.87;;;;;;;17.09;56.78;98971.89;2287831;77;21017;-80
2022/05/13 05:19:18;;;;;;;382.43;29.92;;;;;;;17.36;56.02;98971.14;2288396;78;21009;-78
2022/05/13 05:22:18;;;;;;;26.57;7.05;;;;;;;17.70;54.90;98966.30;2276801;77;21594;-80
2022/05/13 05:25:18;;;;;;;22.62;6.35;;;;;;;18.08;53.86;98975.81;2276855;78;20945;-82
2022/05/13 05:28:19;;;;;;;27.15;6.72;;;;;;;18.42;52.58;98974.82;2276565;78;20978;-82
2022/05/13 05:31:21;;;;;;;81.60;10.30;;;;;;;18.67;51.73;98969.12;2256012;78;21006;-78
2022/05/13 05:34:21;;;;;;;19.57;6.72;;;;;;;18.83;50.30;98964.41;2277338;78;21425;-78
2022/05/13 05:37:22;;;;;;;22.87;5.75;;;;;;;18.83;49.68;98969.70;2276675;78;21036;-79
2022/05/13 05:40:22;;;;;;;20.60;5.17;;;;;;;18.79;49.74;98971.53;2277287;78;20970;-80
2022/05/13 05:43:23;;;;;;;16.52;5.30;;;;;;;18.66;49.89;98965.60;2276817;78;20994;-79
2022/05/13 05:46:23;;;;;;;14.00;5.58;;;;;;;18.56;49.59;98971.06;2275275;78;20934;-78
2022/05/13 05:49:24;;;;;;;10.95;4.62;;;;;;;18.53;49.60;98971.11;2274671;78;21457;-77
2022/05/13 05:52:24;;;;;;;9.78;3.77;;;;;;;18.56;49.05;98981.18;2275458;78;21021;-79
2022/05/13 05:58:43;;;;;;;17.73;3.70;;;;;;;18.73;47.14;98973.84;2274432;78;20958;-80
2022/05/13 06:01:44;;;;;;;13.00;3.98;;;;;;;18.81;46.77;98976.79;2276223;78;21361;-80
2022/05/13 06:04:44;;;;;;;11.70;3.67;;;;;;;18.78;46.54;98975.08;2275838;78;20962;-81
2022/05/13 06:07:46;;;;;;;14.35;4.15;;;;;;;18.84;46.68;98976.28;2275812;78;21025;-79
2022/05/13 06:10:45;;;;;;;6.47;3.27;;;;;;;18.94;46.39;98976.52;2276102;78;21022;-81
2022/05/13 06:13:45;;;;;;;5.83;3.37;;;;;;;19.21;45.99;98979.55;2276790;78;20978;-81
2022/05/13 06:16:46;;;;;;;9.13;3.42;;;;;;;19.42;46.07;98984.38;2276669;78;21393;-81
2022/05/13 06:19:46;;;;;;;9.70;3.22;;;;;;;19.64;45.56;98972.45;2277939;76;21084;-80
2022/05/13 06:22:47;;;;;;;11.63;3.87;;;;;;;19.88;45.59;98977.63;2287004;77;20953;-81
2022/05/13 06:25:47;;;;;;;25.92;5.37;;;;;;;20.16;44.31;98980.52;2287215;77;20986;-81
2022/05/13 06:28:47;;;;;;;12.18;3.50;;;;;;;20.40;43.92;98983.49;2287707;77;20926;-81
2022/05/13 06:31:48;;;;;;;4.35;3.10;;;;;;;20.70;43.74;98982.69;2286596;77;20958;-80
2022/05/13 06:34:48;;;;;;;6.53;2.98;;;;;;;20.96;42.91;98981.55;2287132;78;21041;-79
2022/05/13 06:37:49;;;;;;;18.90;4.20;;;;;;;21.27;42.89;98976.27;2287017;77;20969;-81
2022/05/13 06:40:49;;;;;;;10.45;3.47;;;;;;;21.49;42.46;98971.19;2287642;77;20978;-81
2022/05/13 06:43:49;;;;;;;9.70;3.20;;;;;;;21.68;42.53;98973.31;2287963;77;21369;-82
2022/05/13 06:46:50;;;;;;;7.17;2.45;;;;;;;21.85;42.11;98977.19;2287071;78;20949;-84
2022/05/13 06:49:50;;;;;;;4.78;2.87;;;;;;;22.09;41.85;98967.58;2289187;77;20981;-84
2022/05/13 06:52:56;;;;;;;8.63;2.85;;;;;;;22.28;41.19;98968.30;2289421;77;21076;-85
2022/05/13 06:55:57;;;;;;;5.55;2.85;;;;;;;22.44;40.59;98962.88;2289226;77;20981;-84
2022/05/13 06:58:57;;;;;;;5.42;2.40;;;;;;;22.38;39.77;98968.41;2288897;77;20923;-82
2022/05/13 07:01:57;;;;;;;9.58;2.33;;;;;;;22.35;39.84;98957.87;2289271;77;20954;-84
2022/05/13 07:04:58;;;;;;;5.87;2.30;;;;;;;22.40;39.30;98955.92;2289365;78;21289;-81
2022/05/13 07:07:58;;;;;;;3.83;2.47;;;;;;;22.55;39.45;98954.97;2288318;77;20982;-82
2022/05/13 07:10:59;;;;;;;4.00;2.22;;;;;;;22.90;39.05;98951.55;2287878;77;21040;-80
2022/05/13 07:13:59;;;;;;;9.08;2.35;;;;;;;23.22;38.51;98950.35;2287262;78;21643;-81
2022/05/13 07:16:59;;;;;;;7.50;2.60;;;;;;;23.29;38.06;98954.98;2287669;77;21000;-81
2022/05/13 07:20:00;;;;;;;5.53;2.08;;;;;;;23.36;37.48;98949.83;2285459;77;21024;-83
2022/05/13 07:23:00;;;;;;;9.73;2.40;;;;;;;23.42;36.22;98952.29;2259666;78;20981;-82
2022/05/13 07:26:01;;;;;;;30.20;3.10;;;;;;;23.22;36.96;98951.69;2259814;78;21507;-79
2022/05/13 07:29:04;;;;;;;7.37;2.77;;;;;;;23.41;36.79;98943.89;2259788;78;21001;-82
2022/05/13 07:32:02;;;;;;;6.47;2.52;;;;;;;23.43;36.57;98948.23;2259117;78;20946;-81
2022/05/13 07:35:03;;;;;;;4.25;2.25;;;;;;;23.26;35.04;98948.44;2259547;78;21317;-81
2022/05/13 07:38:03;;;;;;;6.67;2.12;;;;;;;23.02;34.66;98950.23;2259407;78;21017;-81
2022/05/13 07:41:19;;;;;;;81.90;6.85;;;;;;;22.77;34.20;98945.77;2259628;78;21045;-80
2022/05/13 07:44:19;;;;;;;4.45;1.85;;;;;;;22.76;33.36;98944.02;2259495;78;20988;-77
2022/05/13 07:47:19;;;;;;;5.50;2.05;;;;;;;22.93;33.48;98950.56;2260001;78;20970;-80
2022/05/13 07:50:20;;;;;;;6.30;1.60;;;;;;;22.65;32.68;98956.84;2260162;78;20938;-80
2022/05/13 07:53:20;;;;;;;3.45;2.47;;;;;;;22.42;30.70;98950.95;2260380;78;20966;-79
2022/05/13 07:56:21;;;;;;;2.80;1.70;;;;;;;22.24;32.44;98960.43;2258651;78;21199;-83
2022/05/13 07:59:21;;;;;;;3.67;2.30;;;;;;;22.05;33.30;98967.73;2257850;78;21001;-81
2022/05/13 08:02:22;;;;;;;8.80;2.12;;;;;;;21.98;32.98;98972.81;2258891;78;20962;-79
2022/05/13 08:05:22;;;;;;;3.40;1.70;;;;;;;21.86;33.26;98970.95;2258234;78;20969;-80
2022/05/13 08:08:22;;;;;;;8.68;2.22;;;;;;;21.83;33.12;98971.05;2258971;78;20965;-81
2022/05/13 08:11:23;;;;;;;1.77;1.42;;;;;;;21.77;32.95;98977.88;2258885;78;21004;-81
2022/05/13 08:14:23;;;;;;;6.90;1.70;;;;;;;21.63;33.06;98968.98;2259722;78;20957;-80
2022/05/13 08:17:24;;;;;;;2.75;1.52;;;;;;;21.51;32.50;98977.78;2259092;78;21360;-80
2022/05/13 08:20:24;;;;;;;2.55;1.65;;;;;;;21.59;33.41;98972.65;2259501;77;21127;-80
2022/05/13 08:23:24;;;;;;;5.05;1.87;;;;;;;21.68;33.09;98965.34;2259301;78;21021;-80
2022/05/13 08:26:25;;;;;;;2.83;1.80;;;;;;;21.74;33.02;98971.34;2259126;78;20941;-80
2022/05/13 08:29:25;;;;;;;4.40;1.92;;;;;;;21.82;33.05;98969.31;2260796;78;20957;-80
2022/05/13 08:32:29;;;;;;;7.60;2.25;;;;;;;21.97;33.37;98964.42;2260052;78;20946;-80
2022/05/13 08:35:29;;;;;;;3.70;2.00;;;;;;;22.24;31.48;98965.75;2260367;78;21413;-80
2022/05/13 08:38:29;;;;;;;7.97;1.77;;;;;;;22.25;31.78;98963.50;2260224;78;21005;-81
2022/05/13 08:41:30;;;;;;;4.33;2.30;;;;;;;22.30;31.50;98961.14;2260265;78;20942;-80
2022/05/13 08:44:30;;;;;;;4.95;1.82;;;;;;;22.32;31.78;98958.84;2259938;78;20942;-82
2022/05/13 08:47:31;;;;;;;4.28;2.08;;;;;;;22.49;31.57;98954.27;2259281;78;20937;-84
2022/05/13 08:50:31;;;;;;;7.75;2.12;;;;;;;22.45;29.84;98952.64;2260361;78;20938;-83
2022/05/13 08:53:31;;;;;;;7.12;2.00;;;;;;;22.12;30.05;98951.53;2259607;78;20926;-83
2022/05/13 08:56:34;;;;;;;6.87;1.85;;;;;;;22.18;31.11;98947.34;2260925;78;21201;-85
2022/05/13 08:59:35;;;;;;;8.63;1.30;;;;;;;22.48;30.98;98944.56;2259917;78;21008;-84
2022/05/13 09:02:35;;;;;;;4.22;1.50;;;;;;;22.43;30.06;98941.19;2260757;78;20895;-84
2022/05/13 09:05:36;;;;;;;7.87;1.65;;;;;;;22.43;30.67;98942.52;2261113;78;20977;-80
2022/05/13 09:08:36;;;;;;;3.45;1.55;;;;;;;22.51;30.32;98933.81;2258378;78;20938;-77
2022/05/13 09:11:36;;;;;;;2.50;1.50;;;;;;;22.64;29.99;98929.83;2258420;78;21064;-79
2022/05/13 09:14:37;;;;;;;21.05;2.33;;;;;;;22.99;30.17;98926.37;2258984;78;21933;-77
2022/05/13 09:17:37;;;;;;;3.47;1.52;;;;;;;23.30;29.62;98923.43;2258115;78;21407;-78
2022/05/13 09:20:38;;;;;;;4.05;1.87;;;;;;;23.39;29.45;98918.61;2260179;78;20945;-80
2022/05/13 09:23:39;;;;;;;2.92;1.67;;;;;;;23.41;29.38;98907.47;2286801;78;20969;-79
2022/05/13 09:26:38;;;;;;;2.50;1.70;;;;;;;23.47;29.19;98906.36;2286679;77;21005;-79
2022/05/13 09:29:39;;;;;;;5.90;1.98;;;;;;;23.47;29.17;98908.56;2285306;78;21516;-80
2022/05/13 09:32:39;;;;;;;4.37;2.30;;;;;;;23.56;29.14;98901.17;2288375;78;21009;-79
2022/05/13 09:35:40;;;;;;;3.55;1.45;;;;;;;23.75;28.87;98900.83;2286095;77;20977;-80
2022/05/13 09:38:41;;;;;;;6.03;2.15;;;;;;;23.98;29.25;98894.09;2286368;78;20977;-79
2022/05/13 09:41:41;;;;;;;15.93;2.47;;;;;;;24.32;28.93;98882.05;2285790;77;21049;-81
2022/05/13 09:44:41;;;;;;;7.05;1.98;;;;;;;24.48;28.57;98872.45;2286563;77;20945;-81
2022/05/13 09:47:42;;;;;;;2.62;1.40;;;;;;;24.69;28.04;98874.16;2287868;78;20985;-79
2022/05/13 09:50:42;;;;;;;8.73;2.10;;;;;;;24.76;27.63;98867.61;2286752;77;20926;-80
2022/05/13 09:53:42;;;;;;;20.90;2.72;;;;;;;24.83;28.23;98851.31;2286739;77;21413;-79
2022/05/13 09:56:43;;;;;;;9.93;2.15;;;;;;;25.14;28.27;98846.78;2285098;78;20996;-80
2022/05/13 09:59:43;;;;;;;4.30;1.60;;;;;;;25.54;27.91;98843.09;2286290;77;21032;-80
2022/05/13 10:02:44;;;;;;;13.15;2.12;;;;;;;25.82;27.07;98842.16;2286389;77;22002;-80
2022/05/13 10:05:44;;;;;;;7.53;1.72;;;;;;;25.76;25.60;98839.78;2286064;78;20937;-80
2022/05/13 10:08:50;;;;;;;2.12;1.42;;;;;;;25.68;26.96;98840.64;2286087;77;21130;-78
2022/05/13 10:15:10;;;;;;;4.62;1.30;;;;;;;26.60;26.50;98823.45;2286058;77;20971;-79
2022/05/13 10:18:10;;;;;;;3.77;1.70;;;;;;;27.02;25.57;98818.10;2286766;78;22015;-81
2022/05/13 10:21:11;;;;;;;5.80;1.45;;;;;;;27.02;24.90;98818.97;2284755;78;21005;-79
2022/05/13 10:24:11;;;;;;;6.65;1.60;;;;;;;26.28;24.78;98823.78;2276499;78;20934;-80
2022/05/13 10:27:12;;;;;;;2.35;1.20;;;;;;;25.98;25.30;98817.70;2277879;78;20988;-79
2022/05/13 10:30:12;;;;;;;6.87;1.55;;;;;;;26.28;25.53;98810.41;2278253;78;20977;-78
2022/05/13 10:33:12;;;;;;;3.05;1.35;;;;;;;26.52;24.79;98799.77;2276655;78;20979;-80
2022/05/13 10:36:15;;;;;;;2.65;1.47;;;;;;;26.41;24.92;98799.47;2277156;78;21201;-80
2022/05/13 10:39:15;;;;;;;2.80;1.43;;;;;;;26.34;25.11;98798.07;2257031;78;21009;-81
2022/05/13 10:42:16;;;;;;;10.72;2.70;;;;;;;26.31;25.60;98799.54;2276566;78;21464;-80
2022/05/13 10:45:17;;;;;;;6.30;1.77;;;;;;;26.79;25.83;98797.88;2276058;78;21424;-79
2022/05/13 10:48:16;;;;;;;2.98;1.70;;;;;;;27.36;25.51;98792.95;2277733;78;20977;-79
2022/05/13 10:51:17;;;;;;;4.92;1.80;;;;;;;27.78;24.83;98787.84;2277956;78;21006;-79
2022/05/13 10:54:19;;;;;;;3.03;1.60;;;;;;;27.93;24.46;98782.52;2256641;78;21002;-80
2022/05/13 10:57:19;;;;;;;3.37;1.57;;;;;;;28.05;24.87;98775.08;2275959;78;20950;-79
2022/05/13 11:00:20;;;;;;;8.03;2.12;;;;;;;28.20;24.03;98780.85;2274791;78;21364;-78
2022/05/13 11:03:21;;;;;;;7.30;1.75;;;;;;;27.83;23.92;98777.70;2276160;78;21038;-80
2022/05/13 11:06:21;;;;;;;3.83;1.92;;;;;;;26.99;23.70;98770.06;2276058;78;20902;-79
2022/05/13 11:09:21;;;;;;;12.63;1.55;;;;;;;26.34;25.11;98767.30;2274708;78;21064;-79
2022/05/13 11:12:21;;;;;;;4.20;1.67;;;;;;;26.25;24.73;98763.74;2275737;78;21002;-80
2022/05/13 11:15:22;;;;;;;7.08;1.67;;;;;;;26.18;25.23;98769.02;2275685;78;21012;-79
2022/05/13 11:18:22;;;;;;;3.75;1.55;;;;;;;25.93;25.82;98766.73;2275518;78;21961;-79
2022/05/13 11:21:23;;;;;;;1.67;1.40;;;;;;;25.75;26.12;98764.53;2271479;78;21013;-80
2022/05/13 11:27:42;;;;;;;4.12;1.60;;;;;;;25.77;26.46;98757.30;2257992;78;21361;-79
2022/05/13 11:30:45;;;;;;;2.45;1.47;;;;;;;26.19;26.08;98754.70;2259029;78;20965;-80
2022/05/13 11:33:46;;;;;;;;;;;;;;;26.57;25.77;98746.84;2261316;78;21012;-79
2022/05/13 11:36:46;;;;;;;6.78;1.72;;;;;;;26.29;25.92;98747.44;2258636;78;20403;-81
2022/05/13 11:39:46;;;;;;;2.55;1.60;;;;;;;26.35;26.19;98740.93;2259860;78;20977;-81
2022/05/13 11:46:06;;;;;;;13.98;2.02;;;;;;;26.67;25.86;98741.85;2258790;78;21053;-79
2022/05/13 11:49:06;;;;;;;1.75;1.57;;;;;;;27.03;25.56;98734.11;2258973;78;21385;-81
2022/05/13 11:52:07;;;;;;;5.20;1.80;;;;;;;27.09;24.94;98729.27;2258443;78;21776;-81
2022/05/13 11:55:10;;;;;;;7.15;1.82;;;;;;;27.21;25.21;98721.87;2258031;78;21005;-81
2022/05/13 11:58:11;;;;;;;;;;;;;;;27.12;25.34;98719.72;2261111;78;20976;-80
2022/05/13 12:01:11;;;;;;;9.98;1.80;;;;;;;26.86;25.47;98721.13;2258007;78;20170;-81
2022/05/13 12:04:12;;;;;;;17.55;2.52;;;;;;;27.03;25.82;98704.17;2258972;78;20969;-80
2022/05/13 12:07:12;;;;;;;6.20;1.98;;;;;;;27.23;25.73;98696.32;2260746;78;20966;-81
2022/05/13 12:10:13;;;;;;;5.95;1.85;;;;;;;27.44;26.01;98682.13;2258727;79;20938;-81
2022/05/13 12:13:13;;;;;;;4.30;1.75;;;;;;;27.49;25.75;98670.66;2259675;78;21468;-81
2022/05/13 12:16:14;;;;;;;4.30;1.62;;;;;;;27.80;25.31;98672.42;2259731;78;20950;-80
2022/05/13 12:19:14;;;;;;;6.80;1.70;;;;;;;28.05;24.72;98659.23;2258583;78;21860;-79
2022/05/13 12:22:14;;;;;;;2.50;1.62;;;;;;;28.10;24.90;98660.28;2258401;78;21064;-80
2022/05/13 12:25:15;;;;;;;5.47;2.00;;;;;;;27.97;24.47;98665.55;2258674;79;20918;-81
2022/05/13 12:28:15;;;;;;;7.08;2.10;;;;;;;27.91;24.54;98660.56;2258791;78;21002;-80
2022/05/13 12:31:15;;;;;;;5.12;1.72;;;;;;;28.04;24.73;98662.00;2258811;78;20989;-80
2022/05/13 12:37:35;;;;;;;5.17;1.90;;;;;;;27.62;25.04;98671.69;2259405;78;20993;-80
2022/05/13 12:40:35;;;;;;;3.83;2.02;;;;;;;27.38;25.34;98667.76;2259345;78;20989;-81
2022/05/13 12:43:36;;;;;;;3.92;1.80;;;;;;;27.49;25.26;98666.64;2259382;79;21416;-79
2022/05/13 12:46:36;;;;;;;3.87;1.95;;;;;;;27.54;25.26;98669.91;2259926;78;20950;-80
2022/05/13 12:49:37;;;;;;;3.60;1.80;;;;;;;27.44;25.03;98657.53;2259459;78;20982;-82
2022/05/13 12:52:37;;;;;;;9.73;2.60;;;;;;;27.38;25.37;98651.67;2260343;78;20989;-84
2022/05/13 12:55:39;;;;;;;7.03;2.30;;;;;;;27.04;25.73;98652.32;2259304;78;21146;-82
2022/05/13 12:58:38;;;;;;;5.35;2.10;;;;;;;26.49;25.91;98648.70;2259317;78;20965;-84
2022/05/13 13:01:38;;;;;;;5.33;1.98;;;;;;;26.17;25.88;98653.60;2259454;78;20993;-84
2022/05/13 13:04:39;;;;;;;5.60;2.02;;;;;;;25.95;26.15;98643.17;2259119;78;21401;-81
2022/05/13 13:07:39;;;;;;;5.42;2.20;;;;;;;25.80;27.14;98627.47;2259321;78;20962;-81
2022/05/13 13:10:39;;;;;;;6.87;2.02;;;;;;;25.83;27.19;98628.65;2259125;78;20953;-80
2022/05/13 13:13:40;;;;;;;5.20;2.77;;;;;;;25.81;27.19;98631.01;2258835;78;21075;-81
2022/05/13 13:16:40;;;;;;;6.00;2.10;;;;;;;25.74;27.18;98631.81;2258507;79;20989;-80
2022/05/13 13:19:41;;;;;;;12.78;2.45;;;;;;;26.24;27.26;98619.74;2258684;78;21053;-80
2022/05/13 13:22:42;;;;;;;5.53;2.10;;;;;;;26.52;26.56;98616.42;2258415;78;21408;-79
2022/05/13 13:25:42;;;;;;;3.95;2.00;;;;;;;26.82;26.43;98619.16;2257118;78;20953;-80
2022/05/13 13:28:43;;;;;;;6.10;2.27;;;;;;;27.15;26.11;98613.71;2257324;78;21033;-79
2022/05/13 13:31:44;;;;;;;4.87;2.02;;;;;;;27.47;25.74;98609.58;2258062;78;20953;-80
2022/05/13 13:34:43;;;;;;;2.45;1.82;;;;;;;27.32;25.56;98617.20;2259852;78;21017;-77
2022/05/13 13:37:44;;;;;;;3.67;2.25;;;;;;;27.06;26.04;98614.25;2260254;78;21876;-80
2022/05/13 13:40:44;;;;;;;4.40;2.10;;;;;;;26.81;26.89;98617.91;2261296;78;20997;-80
2022/05/13 13:43:46;;;;;;;7.25;2.60;;;;;;;26.60;26.57;98612.83;2261351;78;21040;-84
2022/05/13 13:46:45;;;;;;;5.87;2.17;;;;;;;26.35;27.16;98605.80;2263199;78;21348;-84
2022/05/13 13:49:45;;;;;;;4.72;2.17;;;;;;;26.40;27.37;98594.36;2262298;78;20957;-80
2022/05/13 13:52:49;;;;;;;5.83;2.15;;;;;;;26.40;27.01;98582.32;2252781;79;21005;-80
2022/05/13 13:55:48;;;;;;;4.78;2.30;;;;;;;26.71;26.96;98588.12;2261641;78;20930;-80
2022/05/13 13:58:49;;;;;;;6.90;1.90;;;;;;;26.74;26.74;98588.42;2261939;78;20942;-80
2022/05/13 14:01:49;;;;;;;5.45;2.35;;;;;;;26.54;26.49;98589.09;2261847;78;21000;-81
2022/05/13 14:04:49;;;;;;;6.53;2.25;;;;;;;26.51;27.08;98584.39;2261363;78;21341;-81
2022/05/13 14:07:52;;;;;;;8.03;2.92;;;;;;;26.69;27.07;98571.28;2261330;78;20997;-80
2022/05/13 14:10:50;;;;;;;8.30;3.17;;;;;;;27.18;26.56;98560.42;2261653;78;20950;-80
2022/05/13 14:13:50;;;;;;;7.35;2.47;;;;;;;27.18;26.56;98560.42;2260568;78;21035;-80
2022/05/13 14:16:51;;;;;;;4.12;2.27;;;;;;;27.13;26.22;98551.80;2260870;78;20961;-80
2022/05/13 14:19:51;;;;;;;7.90;2.45;;;;;;;27.16;26.49;98545.78;2260321;78;21040;-80
2022/05/13 14:22:51;;;;;;;7.60;2.80;;;;;;;27.13;26.68;98540.60;2271568;78;21065;-80
2022/05/13 14:25:55;;;;;;;3.67;2.27;;;;;;;27.13;26.20;98541.94;2288724;78;20941;-81
2022/05/13 14:28:55;;;;;;;4.08;2.40;;;;;;;27.06;26.50;98533.89;2289766;77;20931;-81
2022/05/13 14:31:58;;;;;;;8.00;2.40;;;;;;;26.96;26.21;98528.66;2290104;77;20923;-82
2022/05/13 14:34:59;;;;;;;4.80;2.47;;;;;;;26.78;26.31;98523.03;2290152;78;20945;-81